Time;durP1;ratioP1;P1;durP2;ratioP2;P2;SDS_P1;SDS_P2;PMS_P1;PMS_P2;Temp;Humidity;BMP_temperature;BMP_pressure;BME280_temperature;BME280_humidity;BME280_pressure;Samples;Min_cycle;Max_cycle;Signal;HPM_P1;HPM_P2
2023/07/27 00:00:47;;;;;;;5.88;4.35;;;24.00;87.50;;;;;;4972147;28;20039;-63
2023/07/27 00:03:13;;;;;;;5.57;4.60;;;24.10;87.50;;;;;;4972180;28;20035;-64
2023/07/27 00:05:39;;;;;;;6.68;5.03;;;24.10;87.70;;;;;;4972215;28;20042;-64
2023/07/27 00:08:04;;;;;;;5.47;4.30;;;24.10;87.90;;;;;;4972125;28;20031;-62
2023/07/27 00:10:30;;;;;;;5.45;4.25;;;24.10;87.80;;;;;;4972144;28;20099;-64
2023/07/27 00:12:56;;;;;;;5.97;4.70;;;24.10;87.70;;;;;;4971377;28;20023;-64
2023/07/27 00:15:22;;;;;;;5.32;4.45;;;24.10;87.50;;;;;;4972354;28;20035;-64
2023/07/27 00:17:47;;;;;;;5.60;4.68;;;24.10;87.20;;;;;;4972267;28;20027;-63
2023/07/27 00:20:13;;;;;;;5.15;4.60;;;24.10;86.70;;;;;;4972175;28;20150;-63
2023/07/27 00:22:39;;;;;;;7.05;4.80;;;24.10;86.30;;;;;;4971529;28;20503;-63
2023/07/27 00:25:05;;;;;;;8.25;5.95;;;24.10;85.70;;;;;;4971931;28;20477;-63
2023/07/27 00:27:31;;;;;;;7.82;5.72;;;24.10;85.10;;;;;;4973836;28;20033;-63
2023/07/27 00:29:56;;;;;;;7.68;4.63;;;24.10;84.60;;;;;;4975853;28;20023;-63
2023/07/27 00:32:22;;;;;;;10.98;6.75;;;24.10;84.30;;;;;;4975581;28;20054;-64
2023/07/27 00:34:51;;;;;;;14.65;8.07;;;24.10;83.80;;;;;;4975513;28;20038;-63
2023/07/27 00:37:17;;;;;;;13.60;9.15;;;24.10;83.30;;;;;;4975301;28;20035;-64
2023/07/27 00:39:42;;;;;;;16.77;10.02;;;24.10;83.00;;;;;;4975462;28;20038;-63
2023/07/27 00:42:08;;;;;;;13.27;9.20;;;24.10;82.90;;;;;;4975483;28;20058;-63
2023/07/27 00:44:34;;;;;;;11.63;7.45;;;24.10;82.80;;;;;;4975406;28;20118;-64
2023/07/27 00:46:59;;;;;;;12.43;7.78;;;24.10;82.70;;;;;;4975969;28;20074;-64
2023/07/27 00:49:25;;;;;;;11.70;8.02;;;24.10;82.50;;;;;;4975938;28;20106;-63
2023/07/27 00:51:51;;;;;;;11.43;8.00;;;24.10;82.40;;;;;;4975580;28;20033;-63
2023/07/27 00:54:18;;;;;;;11.13;7.70;;;24.10;82.10;;;;;;4975160;28;20077;-65
2023/07/27 00:56:44;;;;;;;11.52;8.10;;;24.10;82.00;;;;;;4975159;28;20030;-64
2023/07/27 00:59:12;;;;;;;12.15;8.85;;;24.10;81.80;;;;;;4975289;28;20081;-64
2023/07/27 01:01:38;;;;;;;10.43;6.55;;;24.10;81.50;;;;;;4975168;28;20019;-64
2023/07/27 01:04:03;;;;;;;10.68;7.32;;;24.00;81.40;;;;;;4974996;28;20046;-63
2023/07/27 01:06:30;;;;;;;9.82;6.13;;;24.00;81.50;;;;;;4975023;28;20571;-64
2023/07/27 01:08:56;;;;;;;8.43;6.45;;;24.00;81.50;;;;;;4975038;28;20026;-64
2023/07/27 01:11:51;;;;;;;10.00;6.22;;;24.00;81.60;;;;;;4975144;28;20023;-64
2023/07/27 01:14:44;;;;;;;10.43;7.20;;;24.00;81.60;;;;;;4974917;28;20081;-63
2023/07/27 01:17:16;;;;;;;11.35;7.43;;;24.00;81.80;;;;;;4974916;28;20030;-63
2023/07/27 01:20:04;;;;;;;10.25;6.63;;;24.00;81.70;;;;;;4974849;28;20026;-63
2023/07/27 01:22:32;;;;;;;11.10;7.78;;;24.00;81.80;;;;;;4975029;28;20106;-63
2023/07/27 01:25:07;;;;;;;10.63;6.90;;;23.90;81.80;;;;;;4975144;28;20034;-64
2023/07/27 01:27:53;;;;;;;9.30;5.82;;;24.00;81.70;;;;;;4975027;28;20053;-64
2023/07/27 01:30:57;;;;;;;9.93;6.25;;;23.90;81.20;;;;;;4974638;28;20543;-63
2023/07/27 01:33:32;;;;;;;7.95;5.45;;;23.90;80.90;;;;;;4974529;28;20031;-62
2023/07/27 01:36:18;;;;;;;5.55;4.60;;;23.90;80.60;;;;;;4974574;28;20033;-64
2023/07/27 01:38:47;;;;;;;6.60;4.40;;;23.80;80.70;;;;;;4973622;28;20066;-63
2023/07/27 01:41:15;;;;;;;4.80;4.20;;;23.80;80.90;;;;;;4974500;28;20444;-63
2023/07/27 01:43:42;;;;;;;6.28;4.72;;;23.70;81.00;;;;;;4974315;28;20129;-64
2023/07/27 01:46:10;;;;;;;6.35;4.72;;;23.80;81.20;;;;;;4969870;28;20101;-64
2023/07/27 01:48:40;;;;;;;5.78;3.97;;;23.70;81.10;;;;;;4974328;28;20030;-63
2023/07/27 01:51:09;;;;;;;5.63;4.40;;;23.70;81.20;;;;;;4974328;28;20030;-62
2023/07/27 01:53:36;;;;;;;5.95;4.15;;;23.70;81.30;;;;;;4974262;28;20039;-64
2023/07/27 01:56:04;;;;;;;5.35;4.43;;;23.70;81.30;;;;;;4974373;28;20023;-65
2023/07/27 01:58:30;;;;;;;5.45;4.00;;;23.70;81.50;;;;;;4974065;28;20454;-63
2023/07/27 02:00:57;;;;;;;6.25;4.85;;;23.70;81.60;;;;;;4974099;28;20026;-64
2023/07/27 02:03:24;;;;;;;6.57;4.50;;;23.70;81.70;;;;;;4973532;28;20041;-65
2023/07/27 02:05:49;;;;;;;5.20;3.92;;;23.70;81.70;;;;;;4973786;28;20082;-64
2023/07/27 02:08:15;;;;;;;7.85;4.65;;;23.70;81.80;;;;;;4972992;28;20030;-64
2023/07/27 02:10:41;;;;;;;6.38;5.20;;;23.70;81.90;;;;;;4973808;28;20026;-63
2023/07/27 02:13:45;;;;;;;7.93;4.93;;;23.70;81.90;;;;;;4972883;28;20395;-62
2023/07/27 02:16:23;;;;;;;9.93;5.50;;;23.70;81.80;;;;;;4930366;29;20126;-62
2023/07/27 02:18:53;;;;;;;7.88;5.40;;;23.60;82.00;;;;;;4953435;29;20082;-63
2023/07/27 02:21:20;;;;;;;5.40;4.47;;;23.50;81.90;;;;;;4954539;28;20078;-64
2023/07/27 02:23:47;;;;;;;5.85;4.40;;;23.50;82.30;;;;;;4953486;28;20529;-64
2023/07/27 02:26:13;;;;;;;6.15;4.70;;;23.50;82.60;;;;;;4954391;28;20030;-64
2023/07/27 02:28:38;;;;;;;6.20;5.25;;;23.50;82.70;;;;;;4954358;28;20110;-63
2023/07/27 02:31:04;;;;;;;7.20;4.72;;;23.50;82.80;;;;;;4953327;29;20024;-61
2023/07/27 02:33:30;;;;;;;7.63;5.25;;;23.50;82.80;;;;;;4954233;29;20039;-65
2023/07/27 02:35:56;;;;;;;7.53;5.22;;;23.50;82.80;;;;;;4954799;29;20074;-63
2023/07/27 02:38:21;;;;;;;7.28;5.05;;;23.40;82.80;;;;;;4954448;28;20031;-64
2023/07/27 02:40:47;;;;;;;5.80;4.45;;;23.40;82.90;;;;;;4953551;29;20055;-63
2023/07/27 02:43:14;;;;;;;6.13;4.93;;;23.40;83.10;;;;;;4954257;29;20106;-65
2023/07/27 02:45:39;;;;;;;6.03;5.18;;;23.50;83.40;;;;;;4954084;29;20028;-65
2023/07/27 02:48:05;;;;;;;6.35;5.65;;;23.40;83.50;;;;;;4954266;29;20035;-64
2023/07/27 02:50:30;;;;;;;7.22;5.32;;;23.50;83.80;;;;;;4953815;28;20142;-63
2023/07/27 02:52:56;;;;;;;6.65;5.28;;;23.50;84.10;;;;;;4954054;29;20547;-64
2023/07/27 02:55:22;;;;;;;8.18;6.78;;;23.50;84.40;;;;;;4953802;29;20071;-64
2023/07/27 02:57:47;;;;;;;6.90;5.65;;;23.50;85.00;;;;;;4953907;29;20062;-64
2023/07/27 03:00:13;;;;;;;5.90;4.95;;;23.50;85.30;;;;;;4953885;29;20043;-64
2023/07/27 03:02:39;;;;;;;9.18;5.22;;;23.50;85.30;;;;;;4954028;28;20439;-64
2023/07/27 03:05:05;;;;;;;6.85;4.63;;;23.50;85.60;;;;;;4953902;29;20042;-63
2023/07/27 03:07:31;;;;;;;5.25;4.75;;;23.50;85.70;;;;;;4953768;28;20019;-64
2023/07/27 03:09:57;;;;;;;6.35;4.90;;;23.50;85.80;;;;;;4953716;28;20392;-65
2023/07/27 03:12:23;;;;;;;5.85;4.78;;;23.50;86.00;;;;;;4953603;29;20039;-65
2023/07/27 03:14:48;;;;;;;6.38;4.63;;;23.50;86.00;;;;;;4953879;28;20055;-63
2023/07/27 03:17:14;;;;;;;5.55;4.43;;;23.50;86.20;;;;;;4968349;28;20093;-64
2023/07/27 03:19:40;;;;;;;7.95;4.95;;;23.60;86.50;;;;;;4953435;28;20102;-64
2023/07/27 03:22:06;;;;;;;6.35;4.60;;;23.60;86.80;;;;;;4953834;29;20028;-64
2023/07/27 03:24:32;;;;;;;6.35;4.40;;;23.60;86.80;;;;;;4953441;28;20031;-64
2023/07/27 03:26:58;;;;;;;6.10;4.75;;;23.60;86.90;;;;;;4953384;28;20420;-64
2023/07/27 03:29:24;;;;;;;6.00;4.60;;;23.60;87.10;;;;;;4953315;29;20027;-64
2023/07/27 03:31:49;;;;;;;7.00;4.93;;;23.60;87.20;;;;;;4953613;28;20020;-64
2023/07/27 03:34:15;;;;;;;6.70;5.00;;;23.60;87.30;;;;;;4953183;29;20376;-63
2023/07/27 03:36:41;;;;;;;7.38;5.25;;;23.60;87.40;;;;;;4953284;29;20485;-63
2023/07/27 03:39:07;;;;;;;7.63;5.57;;;23.70;87.60;;;;;;4953374;28;20035;-64
2023/07/27 03:41:33;;;;;;;6.85;5.43;;;23.70;87.70;;;;;;4953221;28;20038;-65
2023/07/27 03:43:59;;;;;;;6.22;5.35;;;23.60;87.70;;;;;;4953613;29;20074;-63
2023/07/27 03:46:25;;;;;;;6.05;4.93;;;23.70;87.90;;;;;;4957176;28;20124;-64
2023/07/27 03:48:51;;;;;;;6.70;4.85;;;23.70;88.00;;;;;;4972064;28;20387;-65
2023/07/27 03:51:17;;;;;;;5.95;4.68;;;23.70;88.10;;;;;;4972330;28;20029;-61
2023/07/27 03:53:42;;;;;;;5.75;4.80;;;23.70;88.20;;;;;;4972307;28;20035;-64
2023/07/27 03:56:08;;;;;;;6.70;4.80;;;23.60;88.20;;;;;;4972060;28;20093;-64
2023/07/27 03:58:34;;;;;;;6.40;4.97;;;23.60;88.60;;;;;;4972087;28;20065;-64
2023/07/27 04:00:59;;;;;;;6.55;5.13;;;23.60;89.50;;;;;;4972272;28;20027;-65
2023/07/27 04:03:25;;;;;;;7.53;5.78;;;23.60;89.40;;;;;;4975176;28;20038;-65
2023/07/27 04:05:52;;;;;;;6.78;4.82;;;23.60;89.60;;;;;;4976057;28;20102;-64
2023/07/27 04:08:18;;;;;;;6.63;4.93;;;23.60;89.70;;;;;;4974656;28;20035;-64
2023/07/27 04:10:43;;;;;;;6.15;5.00;;;23.60;89.90;;;;;;4976167;28;20031;-64
2023/07/27 04:13:10;;;;;;;5.22;4.47;;;23.60;90.00;;;;;;4976174;28;20026;-65
2023/07/27 04:15:37;;;;;;;7.32;4.88;;;23.60;90.00;;;;;;4976349;28;20027;-65
2023/07/27 04:18:04;;;;;;;5.53;4.60;;;23.60;89.90;;;;;;4976094;28;20046;-65
2023/07/27 04:20:29;;;;;;;6.28;4.95;;;23.60;90.10;;;;;;4975865;28;20045;-63
2023/07/27 04:22:55;;;;;;;5.85;4.85;;;23.60;90.20;;;;;;4975843;28;20023;-65
2023/07/27 04:25:21;;;;;;;6.32;5.05;;;23.70;90.30;;;;;;4975040;28;20037;-64
2023/07/27 04:27:46;;;;;;;5.85;4.95;;;23.70;90.40;;;;;;4974773;28;20045;-64
2023/07/27 04:30:12;;;;;;;5.65;5.05;;;23.70;90.50;;;;;;4975711;28;20033;-65
2023/07/27 04:32:38;;;;;;;6.15;5.55;;;23.70;90.50;;;;;;4984218;28;20027;-61
2023/07/27 04:35:04;;;;;;;5.97;4.90;;;23.70;90.50;;;;;;4985700;28;20051;-63
2023/07/27 04:37:29;;;;;;;6.68;4.93;;;23.80;90.60;;;;;;4985697;28;20027;-62
2023/07/27 04:39:55;;;;;;;6.68;5.60;;;23.80;90.70;;;;;;4986750;28;20085;-62
2023/07/27 04:42:20;;;;;;;6.78;5.75;;;23.90;90.80;;;;;;4997299;28;20031;-62
2023/07/27 04:44:46;;;;;;;8.85;5.95;;;23.90;90.70;;;;;;4998584;28;20071;-61
2023/07/27 04:47:12;;;;;;;6.32;5.20;;;24.00;90.50;;;;;;4996390;28;20038;-61
2023/07/27 04:49:37;;;;;;;6.22;5.32;;;24.10;90.30;;;;;;4998178;28;20034;-62
2023/07/27 04:52:03;;;;;;;5.97;4.97;;;24.10;90.20;;;;;;4997834;28;20035;-61
2023/07/27 04:54:29;;;;;;;6.22;5.00;;;24.10;90.20;;;;;;4993100;28;20031;-62
2023/07/27 04:56:54;;;;;;;5.80;4.80;;;24.20;90.30;;;;;;4987320;28;20066;-62
2023/07/27 04:59:20;;;;;;;5.72;5.13;;;24.20;90.20;;;;;;4988107;28;20034;-62
2023/07/27 05:01:45;;;;;;;5.85;5.05;;;24.20;90.10;;;;;;4986124;28;20031;-62
2023/07/27 05:04:11;;;;;;;5.75;4.78;;;24.30;90.10;;;;;;4986788;28;20073;-62
2023/07/27 05:06:39;;;;;;;6.22;5.35;;;24.30;90.00;;;;;;4984864;28;20524;-62
2023/07/27 05:09:05;;;;;;;7.95;4.90;;;24.40;89.90;;;;;;4984119;28;20046;-62
2023/07/27 05:11:30;;;;;;;6.20;4.97;;;24.50;89.90;;;;;;4983403;28;20023;-62
2023/07/27 05:13:56;;;;;;;6.10;4.97;;;24.50;89.70;;;;;;4983273;28;20027;-62
2023/07/27 05:16:22;;;;;;;6.43;4.90;;;24.60;89.10;;;;;;4983340;28;20031;-62
2023/07/27 05:18:47;;;;;;;7.93;5.05;;;24.60;88.60;;;;;;4985224;28;20030;-62
2023/07/27 05:21:13;;;;;;;6.18;5.00;;;24.60;88.20;;;;;;4983106;28;20046;-62
2023/07/27 05:23:38;;;;;;;6.18;5.25;;;24.60;88.00;;;;;;4985892;28;20410;-61
2023/07/27 05:26:05;;;;;;;9.48;5.47;;;24.60;87.70;;;;;;4988171;28;20026;-60
2023/07/27 05:28:30;;;;;;;7.32;5.43;;;24.60;87.30;;;;;;4989504;28;20042;-62
2023/07/27 05:30:56;;;;;;;5.85;4.95;;;24.60;87.20;;;;;;4990582;28;20086;-60
2023/07/27 05:33:23;;;;;;;6.97;5.85;;;24.60;87.20;;;;;;4990844;28;20038;-60
2023/07/27 05:35:49;;;;;;;6.90;5.10;;;24.60;87.30;;;;;;4990754;28;20016;-62
2023/07/27 05:38:15;;;;;;;6.82;5.03;;;24.50;87.30;;;;;;4989497;28;20090;-61
2023/07/27 05:40:41;;;;;;;7.30;5.80;;;24.60;87.60;;;;;;4990025;28;20092;-61
2023/07/27 05:43:07;;;;;;;9.88;7.57;;;24.50;87.70;;;;;;4990184;28;20030;-61
2023/07/27 05:45:32;;;;;;;12.48;8.18;;;24.50;87.70;;;;;;4990461;28;20059;-62
2023/07/27 05:47:58;;;;;;;11.68;8.82;;;24.50;87.40;;;;;;4989635;28;20050;-62
2023/07/27 05:50:25;;;;;;;10.50;7.93;;;24.50;87.60;;;;;;4989688;28;20038;-61
2023/07/27 05:52:50;;;;;;;10.88;7.93;;;24.40;87.70;;;;;;4991146;28;20082;-61
2023/07/27 05:55:16;;;;;;;12.27;9.07;;;24.40;87.80;;;;;;4989946;28;20038;-62
2023/07/27 05:57:41;;;;;;;9.43;7.57;;;24.40;87.90;;;;;;4989964;28;20061;-62
2023/07/27 06:00:08;;;;;;;9.15;6.85;;;24.40;88.00;;;;;;4989947;28;20026;-62
2023/07/27 06:02:34;;;;;;;8.88;7.30;;;24.40;88.10;;;;;;4990185;28;20035;-61
2023/07/27 06:05:00;;;;;;;12.02;7.70;;;24.40;88.20;;;;;;4989267;28;20050;-62
2023/07/27 06:07:26;;;;;;;9.68;6.88;;;24.40;88.40;;;;;;4989710;28;20039;-62
2023/07/27 06:09:52;;;;;;;8.80;6.68;;;24.40;88.60;;;;;;4989968;28;20055;-62
2023/07/27 06:12:18;;;;;;;9.02;7.32;;;24.50;88.70;;;;;;4990038;28;20432;-62
2023/07/27 06:14:44;;;;;;;11.57;8.00;;;24.50;88.70;;;;;;4989401;28;20039;-62
2023/07/27 06:17:10;;;;;;;9.90;8.02;;;24.50;88.80;;;;;;4989471;28;20050;-62
2023/07/27 06:19:35;;;;;;;13.20;9.48;;;24.50;88.80;;;;;;4989397;28;20038;-62
2023/07/27 06:22:01;;;;;;;15.52;10.55;;;24.60;88.70;;;;;;4989685;28;20031;-62
2023/07/27 06:24:27;;;;;;;16.73;11.25;;;24.60;88.50;;;;;;4988093;28;20030;-62
2023/07/27 06:26:52;;;;;;;22.40;15.10;;;24.50;88.40;;;;;;4987792;28;20054;-60
2023/07/27 06:29:18;;;;;;;20.30;14.13;;;24.50;88.20;;;;;;4988214;28;20029;-62
2023/07/27 06:31:44;;;;;;;24.75;16.88;;;24.50;88.10;;;;;;4989902;28;20037;-61
2023/07/27 06:34:10;;;;;;;26.08;16.10;;;24.50;88.40;;;;;;4990337;28;20053;-60
2023/07/27 06:36:36;;;;;;;24.25;17.15;;;24.50;88.50;;;;;;4989806;28;20034;-62
2023/07/27 06:39:01;;;;;;;22.25;14.18;;;24.50;88.60;;;;;;4989063;28;20106;-62
2023/07/27 06:41:27;;;;;;;17.30;12.68;;;24.50;88.50;;;;;;4990190;28;20039;-61
2023/07/27 06:43:53;;;;;;;19.08;13.07;;;24.40;88.60;;;;;;4989793;28;20043;-62
2023/07/27 06:46:19;;;;;;;17.75;12.98;;;24.40;88.90;;;;;;4989546;28;20038;-61
2023/07/27 06:48:46;;;;;;;18.42;14.35;;;24.40;89.10;;;;;;4988051;28;20037;-59
2023/07/27 06:51:12;;;;;;;21.88;14.68;;;24.40;89.50;;;;;;4987698;28;20015;-60
2023/07/27 06:53:38;;;;;;;21.77;14.85;;;24.30;89.50;;;;;;4987731;28;20415;-61
2023/07/27 06:56:04;;;;;;;21.80;15.82;;;24.30;89.80;;;;;;4988310;28;20030;-61
2023/07/27 06:58:30;;;;;;;25.13;18.30;;;24.30;89.90;;;;;;4988473;28;20423;-60
2023/07/27 07:00:56;;;;;;;22.80;16.17;;;24.30;90.10;;;;;;4988630;28;20482;-59
2023/07/27 07:03:22;;;;;;;21.92;15.68;;;24.30;90.20;;;;;;4988557;28;20118;-62
2023/07/27 07:05:48;;;;;;;20.88;15.13;;;24.30;90.10;;;;;;4988391;28;20027;-62
2023/07/27 07:08:13;;;;;;;20.02;14.07;;;24.40;90.20;;;;;;4988083;28;20031;-61
2023/07/27 07:10:39;;;;;;;17.23;12.73;;;24.40;90.10;;;;;;4988910;28;20027;-61
2023/07/27 07:13:04;;;;;;;14.80;10.57;;;24.40;90.10;;;;;;4987982;28;20050;-61
2023/07/27 07:15:30;;;;;;;10.80;8.60;;;24.50;89.90;;;;;;4987937;28;20054;-61
2023/07/27 07:17:56;;;;;;;12.40;8.77;;;24.50;90.00;;;;;;4987110;28;20034;-61
2023/07/27 07:20:21;;;;;;;8.60;7.65;;;24.50;90.00;;;;;;4988058;28;20090;-61
2023/07/27 07:22:47;;;;;;;9.55;7.03;;;24.60;89.80;;;;;;4987317;28;20025;-60
2023/07/27 07:25:13;;;;;;;8.63;7.32;;;24.60;89.60;;;;;;4980670;28;20034;-61
2023/07/27 07:27:38;;;;;;;8.63;7.72;;;24.70;89.80;;;;;;4977563;28;20019;-61
2023/07/27 07:30:05;;;;;;;12.63;9.40;;;24.80;89.40;;;;;;4985356;28;20077;-61
2023/07/27 07:32:34;;;;;;;15.60;10.27;;;24.90;88.70;;;;;;4975715;28;20368;-59
2023/07/27 07:35:00;;;;;;;18.15;11.63;;;25.00;88.20;;;;;;4980895;28;20038;-61
2023/07/27 07:37:25;;;;;;;19.13;12.55;;;25.00;88.00;;;;;;4979684;28;20026;-61
2023/07/27 07:39:51;;;;;;;18.65;12.15;;;25.00;87.80;;;;;;4976228;28;20535;-60
2023/07/27 07:42:17;;;;;;;23.15;13.55;;;25.10;87.90;;;;;;4977257;28;20483;-61
2023/07/27 07:44:42;;;;;;;17.95;11.20;;;25.20;87.90;;;;;;4976046;28;20491;-61
2023/07/27 07:47:08;;;;;;;20.17;11.07;;;25.30;87.70;;;;;;4976207;28;20035;-50
2023/07/27 07:49:34;;;;;;;13.00;8.75;;;25.30;87.30;;;;;;4963466;28;20065;-53
2023/07/27 07:51:59;;;;;;;42.65;19.08;;;25.40;86.90;;;;;;4966465;28;20034;-51
2023/07/27 07:54:29;;;;;;;62.63;27.25;;;25.50;86.60;;;;;;4968422;28;20434;-52
2023/07/27 07:56:55;;;;;;;87.45;38.17;;;25.60;86.40;;;;;;4971136;28;20109;-51
2023/07/27 07:59:21;;;;;;;101.30;43.00;;;25.60;86.20;;;;;;4971237;28;20042;-49
2023/07/27 08:01:46;;;;;;;69.25;35.67;;;25.70;85.90;;;;;;4962608;28;20471;-54
2023/07/27 08:04:12;;;;;;;56.15;29.67;;;25.80;85.70;;;;;;4969906;28;20026;-50
2023/07/27 08:06:37;;;;;;;46.55;25.60;;;25.90;85.30;;;;;;4969551;28;20126;-52
2023/07/27 08:09:03;;;;;;;41.53;22.40;;;25.90;85.00;;;;;;4957899;28;20168;-50
2023/07/27 08:11:29;;;;;;;31.90;21.33;;;25.90;84.70;;;;;;4966428;28;20375;-49
2023/07/27 08:13:59;;;;;;;37.65;20.20;;;25.90;84.70;;;;;;4964323;28;20046;-50
2023/07/27 08:16:24;;;;;;;32.77;20.13;;;25.90;84.50;;;;;;4966179;28;20427;-51
2023/07/27 08:18:50;;;;;;;33.33;21.15;;;26.00;84.40;;;;;;4952533;28;20273;-51
2023/07/27 08:21:16;;;;;;;26.58;18.60;;;26.00;84.20;;;;;;4969556;28;20050;-51
2023/07/27 08:23:41;;;;;;;24.80;15.52;;;26.00;84.00;;;;;;4967385;28;20504;-52
2023/07/27 08:26:08;;;;;;;23.92;15.77;;;26.10;83.70;;;;;;4966649;28;20023;-53
2023/07/27 08:28:34;;;;;;;31.95;20.77;;;26.20;83.60;;;;;;4959117;28;20110;-51
2023/07/27 08:31:03;;;;;;;21.90;15.02;;;26.20;83.30;;;;;;4969095;28;20102;-53
2023/07/27 08:33:29;;;;;;;27.08;19.17;;;26.40;83.10;;;;;;4970649;28;20089;-52
2023/07/27 08:35:54;;;;;;;21.27;14.45;;;26.40;82.10;;;;;;4966230;28;20466;-52
2023/07/27 08:38:20;;;;;;;14.90;12.02;;;26.50;81.60;;;;;;4967851;28;20035;-51
2023/07/27 08:40:56;;;;;;;12.43;9.57;;;26.50;81.60;;;;;;4964265;28;20035;-52
2023/07/27 08:43:24;;;;;;;16.77;11.30;;;26.50;81.20;;;;;;4959127;28;20071;-50
2023/07/27 08:45:51;;;;;;;20.65;13.35;;;26.50;80.50;;;;;;4967656;28;20501;-49
2023/07/27 08:48:17;;;;;;;16.98;11.93;;;26.50;80.00;;;;;;4969166;28;20082;-51
2023/07/27 08:50:45;;;;;;;13.45;9.95;;;26.50;79.70;;;;;;4968391;28;20038;-49
2023/07/27 08:53:11;;;;;;;11.98;9.13;;;26.50;79.60;;;;;;4969705;28;20023;-51
2023/07/27 08:55:41;;;;;;;9.68;7.97;;;26.50;79.60;;;;;;4964490;28;20496;-52
2023/07/27 08:58:07;;;;;;;9.63;7.95;;;26.50;79.80;;;;;;4966280;28;20058;-53
2023/07/27 09:00:33;;;;;;;9.10;8.00;;;26.60;80.00;;;;;;4966967;28;20033;-51
2023/07/27 09:02:59;;;;;;;6.50;5.28;;;26.70;79.80;;;;;;4969482;28;20109;-52
2023/07/27 09:05:41;;;;;;;5.15;4.45;;;26.70;79.20;;;;;;4967529;28;20030;-51
2023/07/27 09:08:08;;;;;;;4.50;3.85;;;26.70;79.10;;;;;;4968898;28;20378;-52
2023/07/27 09:10:35;;;;;;;4.47;3.78;;;26.60;78.90;;;;;;4972732;28;20023;-50
2023/07/27 09:13:01;;;;;;;5.88;4.20;;;26.50;79.00;;;;;;4967898;28;20062;-51
2023/07/27 09:15:26;;;;;;;5.47;3.88;;;26.30;79.40;;;;;;4972919;28;20035;-52
2023/07/27 09:17:53;;;;;;;4.22;3.83;;;26.20;79.70;;;;;;4972832;28;20039;-50
2023/07/27 09:20:18;;;;;;;5.65;4.10;;;26.10;80.10;;;;;;4963712;28;20043;-51
2023/07/27 09:22:45;;;;;;;5.07;4.20;;;26.00;80.60;;;;;;4967489;28;20034;-53
2023/07/27 09:25:11;;;;;;;4.60;4.20;;;26.00;80.90;;;;;;4963179;28;20034;-52
2023/07/27 09:27:43;;;;;;;4.80;4.28;;;26.00;81.10;;;;;;4967249;28;20030;-52
2023/07/27 09:30:10;;;;;;;5.57;4.25;;;26.10;81.30;;;;;;4967632;28;20045;-49
2023/07/27 09:32:36;;;;;;;4.03;3.63;;;26.10;81.00;;;;;;4967156;28;20431;-48
2023/07/27 09:35:03;;;;;;;5.50;3.88;;;26.20;81.00;;;;;;4966786;28;20514;-52
2023/07/27 09:37:29;;;;;;;5.22;4.15;;;26.20;80.80;;;;;;4972306;28;20034;-50
2023/07/27 09:40:12;;;;;;;4.55;4.10;;;26.30;80.60;;;;;;4973180;28;20030;-51
2023/07/27 09:42:40;;;;;;;4.63;4.05;;;26.40;80.20;;;;;;4965582;28;20031;-50
2023/07/27 09:45:06;;;;;;;4.90;4.20;;;26.50;80.10;;;;;;4968112;28;20031;-50
2023/07/27 09:47:31;;;;;;;4.35;3.95;;;26.50;79.80;;;;;;4963769;28;20555;-48
2023/07/27 09:50:00;;;;;;;4.93;4.43;;;26.50;79.70;;;;;;4972170;28;20117;-49
2023/07/27 09:52:28;;;;;;;5.43;4.78;;;26.50;79.60;;;;;;4969100;28;20081;-51
2023/07/27 09:54:55;;;;;;;5.55;4.63;;;26.60;79.60;;;;;;4969009;28;20035;-51
2023/07/27 09:57:21;;;;;;;5.65;4.90;;;26.60;79.60;;;;;;4963690;28;20081;-50
2023/07/27 09:59:48;;;;;;;5.43;4.53;;;26.70;79.50;;;;;;4965813;28;20431;-52
2023/07/27 10:02:14;;;;;;;4.68;4.28;;;26.70;79.40;;;;;;4961622;28;20485;-48
2023/07/27 10:04:42;;;;;;;5.32;4.40;;;26.80;79.30;;;;;;4968620;28;20082;-49
2023/07/27 10:07:08;;;;;;;4.75;4.20;;;26.80;79.20;;;;;;4971001;28;20096;-50
2023/07/27 10:09:35;;;;;;;4.63;4.22;;;26.80;79.40;;;;;;4965666;28;20389;-51
2023/07/27 10:12:01;;;;;;;5.63;4.47;;;26.80;79.10;;;;;;4969493;28;20480;-52
2023/07/27 10:14:28;;;;;;;5.43;4.57;;;26.90;78.90;;;;;;4968876;28;20038;-52
2023/07/27 10:17:03;;;;;;;4.43;3.90;;;26.80;78.70;;;;;;4967446;28;20042;-50
2023/07/27 10:19:44;;;;;;;5.18;3.78;;;26.90;78.50;;;;;;4965495;28;20022;-46
2023/07/27 10:22:17;;;;;;;4.85;3.70;;;26.90;78.40;;;;;;4958189;28;20027;-50
2023/07/27 10:24:53;;;;;;;4.00;3.60;;;26.90;78.40;;;;;;4965741;28;20487;-52
2023/07/27 10:27:20;;;;;;;4.22;3.80;;;27.00;78.40;;;;;;4965054;28;20073;-51
2023/07/27 10:29:53;;;;;;;4.22;3.50;;;27.00;78.20;;;;;;4959171;28;20033;-52
2023/07/27 10:32:19;;;;;;;4.20;3.50;;;27.00;78.00;;;;;;4964556;28;20079;-48
2023/07/27 10:34:50;;;;;;;4.55;3.78;;;27.10;77.90;;;;;;4972070;28;20039;-47
2023/07/27 10:37:16;;;;;;;4.78;3.47;;;27.10;77.60;;;;;;4971181;28;20074;-46
2023/07/27 10:39:50;;;;;;;3.53;3.22;;;27.20;77.30;;;;;;4969590;28;20481;-50
2023/07/27 10:42:20;;;;;;;5.25;3.45;;;27.20;77.20;;;;;;4968246;28;20482;-48
2023/07/27 10:44:56;;;;;;;4.30;3.30;;;27.30;77.00;;;;;;4972317;28;20137;-51
2023/07/27 10:47:33;;;;;;;3.70;3.20;;;27.30;76.80;;;;;;4965238;28;20436;-50
2023/07/27 10:49:59;;;;;;;3.88;3.30;;;27.40;76.70;;;;;;4965704;28;20475;-48
2023/07/27 10:52:31;;;;;;;3.20;2.90;;;27.40;76.80;;;;;;4967401;28;20027;-49
2023/07/27 10:54:59;;;;;;;3.22;2.92;;;27.50;76.60;;;;;;4963057;28;20039;-50
2023/07/27 10:57:26;;;;;;;3.33;3.03;;;27.60;76.30;;;;;;4963160;28;20051;-50
2023/07/27 10:59:52;;;;;;;3.70;3.10;;;27.60;76.00;;;;;;4958077;28;20039;-50
2023/07/27 11:02:22;;;;;;;3.13;2.83;;;27.70;75.80;;;;;;4963372;28;20042;-53
2023/07/27 11:05:02;;;;;;;3.83;3.10;;;27.70;75.50;;;;;;4971954;28;20038;-52
2023/07/27 11:07:28;;;;;;;4.10;3.33;;;27.70;75.40;;;;;;4968391;28;20487;-50
2023/07/27 11:09:54;;;;;;;4.65;3.15;;;27.70;75.20;;;;;;4960061;28;20027;-52
2023/07/27 11:12:20;;;;;;;4.15;3.10;;;27.70;75.10;;;;;;4967296;28;20416;-50
2023/07/27 11:14:46;;;;;;;3.85;3.30;;;27.70;75.10;;;;;;4961055;28;20034;-50
2023/07/27 11:17:12;;;;;;;3.38;3.00;;;27.70;74.80;;;;;;4960715;28;20038;-49
2023/07/27 11:19:37;;;;;;;3.40;2.75;;;27.70;74.60;;;;;;4964398;28;20034;-48
2023/07/27 11:22:04;;;;;;;3.33;3.00;;;27.60;74.30;;;;;;4956558;28;20046;-50
2023/07/27 11:24:31;;;;;;;3.20;2.90;;;27.60;74.30;;;;;;4961694;28;20036;-49
2023/07/27 11:26:57;;;;;;;3.22;2.92;;;27.50;74.30;;;;;;4959272;28;20070;-49
2023/07/27 11:29:23;;;;;;;3.53;2.88;;;27.50;74.20;;;;;;4959257;28;20027;-49
2023/07/27 11:31:53;;;;;;;3.53;3.05;;;27.40;74.10;;;;;;4962779;28;20066;-52
2023/07/27 11:34:22;;;;;;;3.53;3.13;;;27.30;74.20;;;;;;4958750;28;20492;-51
2023/07/27 11:36:52;;;;;;;4.18;3.60;;;27.40;74.40;;;;;;4959207;28;20090;-52
2023/07/27 11:39:18;;;;;;;4.10;3.47;;;27.40;74.20;;;;;;4961744;28;20042;-49
2023/07/27 11:41:44;;;;;;;3.55;3.15;;;27.40;74.00;;;;;;4958064;28;20039;-47
2023/07/27 11:44:09;;;;;;;3.55;3.25;;;27.40;73.90;;;;;;4952598;28;20106;-50
2023/07/27 11:46:46;;;;;;;3.72;3.10;;;27.50;73.60;;;;;;4960016;28;20031;-49
2023/07/27 11:49:13;;;;;;;3.05;2.75;;;27.60;73.60;;;;;;4962073;28;20046;-49
2023/07/27 11:51:39;;;;;;;3.17;2.88;;;27.60;73.20;;;;;;4958154;28;20551;-49
2023/07/27 11:54:05;;;;;;;2.90;2.65;;;27.70;73.00;;;;;;4953019;28;20396;-50
2023/07/27 11:56:37;;;;;;;3.83;2.60;;;27.70;72.70;;;;;;4957594;28;20030;-47
2023/07/27 11:59:05;;;;;;;2.65;2.45;;;27.70;72.50;;;;;;4954969;28;20047;-50
2023/07/27 12:01:36;;;;;;;2.50;2.30;;;27.70;72.10;;;;;;4957523;28;20505;-49
2023/07/27 12:04:04;;;;;;;2.90;2.60;;;27.70;71.90;;;;;;4956773;28;20046;-51
2023/07/27 12:06:31;;;;;;;2.92;2.72;;;27.60;71.50;;;;;;4957777;28;20031;-50
2023/07/27 12:08:57;;;;;;;3.05;2.78;;;27.50;71.40;;;;;;4961758;28;20610;-49
2023/07/27 12:11:27;;;;;;;2.58;2.38;;;27.40;71.40;;;;;;4953173;28;20027;-51
2023/07/27 12:13:53;;;;;;;2.42;2.22;;;27.30;71.60;;;;;;4953957;28;20042;-48
2023/07/27 12:16:18;;;;;;;2.90;2.70;;;27.30;72.00;;;;;;4954968;28;20046;-50
2023/07/27 12:18:45;;;;;;;3.10;2.80;;;27.20;72.20;;;;;;4958025;28;20418;-51
2023/07/27 12:21:11;;;;;;;2.53;2.33;;;27.10;72.30;;;;;;4953427;28;20031;-51
2023/07/27 12:23:38;;;;;;;3.80;2.88;;;27.00;72.40;;;;;;4962921;28;20042;-51
2023/07/27 12:26:04;;;;;;;4.28;2.63;;;26.80;72.60;;;;;;4963087;28;20030;-50
2023/07/27 12:28:31;;;;;;;2.83;2.50;;;26.80;72.70;;;;;;4963506;28;20043;-50
2023/07/27 12:30:57;;;;;;;3.10;2.80;;;26.70;72.80;;;;;;4963359;28;20038;-50
2023/07/27 12:33:26;;;;;;;3.97;2.85;;;26.60;72.80;;;;;;4962056;28;20482;-51
2023/07/27 12:35:52;;;;;;;3.22;2.92;;;26.60;73.00;;;;;;4961905;28;20058;-47
2023/07/27 12:38:18;;;;;;;2.70;2.50;;;26.50;73.10;;;;;;4964332;28;20027;-51
2023/07/27 12:40:44;;;;;;;2.97;2.67;;;26.50;73.20;;;;;;4967886;28;20399;-50
2023/07/27 12:43:10;;;;;;;3.20;2.90;;;26.40;73.40;;;;;;4963887;28;20073;-50